sensor_id;sensor_type;location;lat;lon;timestamp;P1;durP1;ratioP1;P2;durP2;ratioP2
20830;SDS011;10576;53.556;9.868;2023-05-02T00:01:48;23.52;;;16.73;;
20830;SDS011;10576;53.556;9.868;2023-05-02T00:04:14;24.02;;;17.63;;
20830;SDS011;10576;53.556;9.868;2023-05-02T00:06:40;25.02;;;17.65;;
20830;SDS011;10576;53.556;9.868;2023-05-02T00:09:06;22.63;;;17.92;;
20830;SDS011;10576;53.556;9.868;2023-05-02T00:11:32;23.88;;;18.20;;
20830;SDS011;10576;53.556;9.868;2023-05-02T00:13:58;25.00;;;18.63;;
20830;SDS011;10576;53.556;9.868;2023-05-02T00:16:23;22.33;;;16.93;;
20830;SDS011;10576;53.556;9.868;2023-05-02T00:18:49;25.33;;;18.37;;
20830;SDS011;10576;53.556;9.868;2023-05-02T00:21:15;23.10;;;17.63;;
20830;SDS011;10576;53.556;9.868;2023-05-02T00:23:40;25.23;;;19.23;;
20830;SDS011;10576;53.556;9.868;2023-05-02T00:26:09;26.07;;;19.03;;
20830;SDS011;10576;53.556;9.868;2023-05-02T00:28:34;26.10;;;19.27;;
20830;SDS011;10576;53.556;9.868;2023-05-02T00:31:00;26.90;;;18.92;;
20830;SDS011;10576;53.556;9.868;2023-05-02T00:33:26;23.50;;;19.10;;
20830;SDS011;10576;53.556;9.868;2023-05-02T00:35:51;23.52;;;18.92;;
20830;SDS011;10576;53.556;9.868;2023-05-02T00:38:17;25.90;;;19.27;;
20830;SDS011;10576;53.556;9.868;2023-05-02T00:40:43;27.75;;;19.88;;
20830;SDS011;10576;53.556;9.868;2023-05-02T00:43:10;26.30;;;20.00;;
20830;SDS011;10576;53.556;9.868;2023-05-02T00:45:36;24.70;;;19.00;;
20830;SDS011;10576;53.556;9.868;2023-05-02T00:48:05;28.00;;;19.03;;
20830;SDS011;10576;53.556;9.868;2023-05-02T00:50:33;24.35;;;19.23;;
20830;SDS011;10576;53.556;9.868;2023-05-02T00:53:01;27.92;;;19.45;;
20830;SDS011;10576;53.556;9.868;2023-05-02T00:55:28;24.38;;;18.63;;
20830;SDS011;10576;53.556;9.868;2023-05-02T00:57:55;26.77;;;18.98;;
20830;SDS011;10576;53.556;9.868;2023-05-02T01:00:21;25.83;;;18.53;;
20830;SDS011;10576;53.556;9.868;2023-05-02T01:02:57;26.70;;;18.55;;
20830;SDS011;10576;53.556;9.868;2023-05-02T01:05:42;26.35;;;18.65;;
20830;SDS011;10576;53.556;9.868;2023-05-02T01:08:16;25.40;;;18.50;;
20830;SDS011;10576;53.556;9.868;2023-05-02T01:11:02;22.52;;;17.25;;
20830;SDS011;10576;53.556;9.868;2023-05-02T01:13:39;24.07;;;18.47;;
20830;SDS011;10576;53.556;9.868;2023-05-02T01:16:07;25.17;;;18.17;;
20830;SDS011;10576;53.556;9.868;2023-05-02T01:18:37;22.48;;;16.15;;
20830;SDS011;10576;53.556;9.868;2023-05-02T01:21:08;18.98;;;15.30;;
20830;SDS011;10576;53.556;9.868;2023-05-02T01:28:56;18.13;;;12.13;;
20830;SDS011;10576;53.556;9.868;2023-05-02T01:31:28;15.50;;;10.93;;
20830;SDS011;10576;53.556;9.868;2023-05-02T01:34:07;16.02;;;10.52;;
20830;SDS011;10576;53.556;9.868;2023-05-02T01:36:34;16.92;;;10.52;;
20830;SDS011;10576;53.556;9.868;2023-05-02T01:39:02;14.70;;;9.98;;
20830;SDS011;10576;53.556;9.868;2023-05-02T01:41:31;18.75;;;10.90;;
20830;SDS011;10576;53.556;9.868;2023-05-02T01:43:58;15.57;;;10.40;;
20830;SDS011;10576;53.556;9.868;2023-05-02T01:46:29;15.75;;;9.95;;
20830;SDS011;10576;53.556;9.868;2023-05-02T01:48:58;16.97;;;10.53;;
20830;SDS011;10576;53.556;9.868;2023-05-02T01:51:27;17.00;;;10.32;;
20830;SDS011;10576;53.556;9.868;2023-05-02T01:53:57;16.50;;;10.30;;
20830;SDS011;10576;53.556;9.868;2023-05-02T01:56:26;16.65;;;10.05;;
20830;SDS011;10576;53.556;9.868;2023-05-02T01:58:53;15.32;;;10.02;;
20830;SDS011;10576;53.556;9.868;2023-05-02T02:01:21;14.00;;;9.80;;
20830;SDS011;10576;53.556;9.868;2023-05-02T02:03:49;15.15;;;9.57;;
20830;SDS011;10576;53.556;9.868;2023-05-02T02:06:15;16.85;;;9.60;;
20830;SDS011;10576;53.556;9.868;2023-05-02T02:08:43;13.63;;;8.57;;
20830;SDS011;10576;53.556;9.868;2023-05-02T02:11:09;12.68;;;8.95;;
20830;SDS011;10576;53.556;9.868;2023-05-02T02:13:38;12.85;;;8.48;;
20830;SDS011;10576;53.556;9.868;2023-05-02T02:16:10;12.85;;;8.23;;
20830;SDS011;10576;53.556;9.868;2023-05-02T02:18:38;11.30;;;7.27;;
20830;SDS011;10576;53.556;9.868;2023-05-02T02:21:05;10.75;;;7.20;;
20830;SDS011;10576;53.556;9.868;2023-05-02T02:23:33;9.67;;;6.00;;
20830;SDS011;10576;53.556;9.868;2023-05-02T02:26:02;7.65;;;5.65;;
20830;SDS011;10576;53.556;9.868;2023-05-02T02:28:30;6.45;;;5.30;;
20830;SDS011;10576;53.556;9.868;2023-05-02T02:30:58;6.68;;;5.15;;
20830;SDS011;10576;53.556;9.868;2023-05-02T02:33:24;6.05;;;5.13;;
20830;SDS011;10576;53.556;9.868;2023-05-02T02:36:05;7.60;;;5.95;;
20830;SDS011;10576;53.556;9.868;2023-05-02T02:38:39;7.80;;;6.03;;
20830;SDS011;10576;53.556;9.868;2023-05-02T02:46:28;12.02;;;7.97;;
20830;SDS011;10576;53.556;9.868;2023-05-02T02:49:12;13.07;;;7.63;;
20830;SDS011;10576;53.556;9.868;2023-05-02T02:51:59;15.18;;;6.75;;
20830;SDS011;10576;53.556;9.868;2023-05-02T02:54:34;12.48;;;5.80;;
20830;SDS011;10576;53.556;9.868;2023-05-02T02:57:15;11.02;;;5.40;;
20830;SDS011;10576;53.556;9.868;2023-05-02T03:00:07;16.10;;;6.03;;
20830;SDS011;10576;53.556;9.868;2023-05-02T03:02:40;12.77;;;5.50;;
20830;SDS011;10576;53.556;9.868;2023-05-02T03:05:08;16.80;;;6.20;;
20830;SDS011;10576;53.556;9.868;2023-05-02T03:07:35;14.60;;;6.53;;
20830;SDS011;10576;53.556;9.868;2023-05-02T03:10:03;12.82;;;6.13;;
20830;SDS011;10576;53.556;9.868;2023-05-02T03:12:30;12.30;;;5.28;;
20830;SDS011;10576;53.556;9.868;2023-05-02T03:14:59;14.73;;;5.35;;
20830;SDS011;10576;53.556;9.868;2023-05-02T03:17:35;13.23;;;4.90;;
20830;SDS011;10576;53.556;9.868;2023-05-02T03:20:01;14.30;;;4.63;;
20830;SDS011;10576;53.556;9.868;2023-05-02T03:22:27;12.45;;;4.20;;
20830;SDS011;10576;53.556;9.868;2023-05-02T03:24:53;12.73;;;4.45;;
20830;SDS011;10576;53.556;9.868;2023-05-02T03:27:18;14.02;;;4.65;;
20830;SDS011;10576;53.556;9.868;2023-05-02T03:29:44;13.00;;;4.65;;
20830;SDS011;10576;53.556;9.868;2023-05-02T03:32:10;15.82;;;5.25;;
20830;SDS011;10576;53.556;9.868;2023-05-02T03:34:35;15.63;;;5.18;;
20830;SDS011;10576;53.556;9.868;2023-05-02T03:37:01;16.90;;;5.72;;
20830;SDS011;10576;53.556;9.868;2023-05-02T03:39:27;20.47;;;5.50;;
20830;SDS011;10576;53.556;9.868;2023-05-02T03:41:52;15.97;;;5.30;;
20830;SDS011;10576;53.556;9.868;2023-05-02T03:44:18;18.43;;;5.27;;
20830;SDS011;10576;53.556;9.868;2023-05-02T03:46:43;15.77;;;4.70;;
20830;SDS011;10576;53.556;9.868;2023-05-02T03:49:09;16.27;;;4.60;;
20830;SDS011;10576;53.556;9.868;2023-05-02T03:51:36;18.23;;;4.75;;
20830;SDS011;10576;53.556;9.868;2023-05-02T03:54:01;20.00;;;5.50;;
20830;SDS011;10576;53.556;9.868;2023-05-02T03:56:27;18.13;;;5.00;;
20830;SDS011;10576;53.556;9.868;2023-05-02T03:58:53;15.23;;;4.70;;
20830;SDS011;10576;53.556;9.868;2023-05-02T04:01:18;17.48;;;5.35;;
20830;SDS011;10576;53.556;9.868;2023-05-02T04:03:44;18.85;;;5.18;;
20830;SDS011;10576;53.556;9.868;2023-05-02T04:06:10;18.63;;;4.95;;
20830;SDS011;10576;53.556;9.868;2023-05-02T04:08:37;20.17;;;5.40;;
20830;SDS011;10576;53.556;9.868;2023-05-02T04:11:03;17.08;;;5.05;;
20830;SDS011;10576;53.556;9.868;2023-05-02T04:13:29;17.13;;;5.13;;
20830;SDS011;10576;53.556;9.868;2023-05-02T04:15:55;16.80;;;5.50;;
20830;SDS011;10576;53.556;9.868;2023-05-02T04:18:22;18.27;;;5.45;;
20830;SDS011;10576;53.556;9.868;2023-05-02T04:20:48;18.37;;;5.60;;
20830;SDS011;10576;53.556;9.868;2023-05-02T04:23:14;17.05;;;5.00;;
20830;SDS011;10576;53.556;9.868;2023-05-02T04:25:49;23.23;;;5.60;;
20830;SDS011;10576;53.556;9.868;2023-05-02T04:28:16;18.52;;;4.88;;
20830;SDS011;10576;53.556;9.868;2023-05-02T04:30:41;16.05;;;4.80;;
20830;SDS011;10576;53.556;9.868;2023-05-02T04:33:07;18.08;;;5.18;;
20830;SDS011;10576;53.556;9.868;2023-05-02T04:35:33;20.65;;;5.57;;
20830;SDS011;10576;53.556;9.868;2023-05-02T04:37:59;16.70;;;5.05;;
20830;SDS011;10576;53.556;9.868;2023-05-02T04:40:25;18.98;;;5.00;;
20830;SDS011;10576;53.556;9.868;2023-05-02T04:42:50;14.98;;;4.57;;
20830;SDS011;10576;53.556;9.868;2023-05-02T04:45:16;18.67;;;5.10;;
20830;SDS011;10576;53.556;9.868;2023-05-02T04:47:42;16.45;;;4.90;;
20830;SDS011;10576;53.556;9.868;2023-05-02T04:50:08;11.03;;;4.23;;
20830;SDS011;10576;53.556;9.868;2023-05-02T04:52:34;14.10;;;4.50;;
20830;SDS011;10576;53.556;9.868;2023-05-02T04:55:00;17.53;;;4.87;;
20830;SDS011;10576;53.556;9.868;2023-05-02T04:57:26;18.30;;;4.47;;
20830;SDS011;10576;53.556;9.868;2023-05-02T04:59:51;16.92;;;4.72;;
20830;SDS011;10576;53.556;9.868;2023-05-02T05:02:17;17.75;;;5.07;;
20830;SDS011;10576;53.556;9.868;2023-05-02T05:04:43;18.00;;;4.87;;
20830;SDS011;10576;53.556;9.868;2023-05-02T05:07:09;17.05;;;5.05;;
20830;SDS011;10576;53.556;9.868;2023-05-02T05:09:35;17.33;;;4.83;;
20830;SDS011;10576;53.556;9.868;2023-05-02T05:12:01;18.83;;;4.87;;
20830;SDS011;10576;53.556;9.868;2023-05-02T05:14:27;14.98;;;4.50;;
20830;SDS011;10576;53.556;9.868;2023-05-02T05:16:52;16.42;;;4.78;;
20830;SDS011;10576;53.556;9.868;2023-05-02T05:19:18;16.25;;;4.95;;
20830;SDS011;10576;53.556;9.868;2023-05-02T05:21:44;22.45;;;4.97;;
20830;SDS011;10576;53.556;9.868;2023-05-02T05:24:10;15.57;;;4.67;;
20830;SDS011;10576;53.556;9.868;2023-05-02T05:26:35;16.15;;;4.70;;
20830;SDS011;10576;53.556;9.868;2023-05-02T05:29:01;22.00;;;5.25;;
20830;SDS011;10576;53.556;9.868;2023-05-02T05:31:27;14.57;;;4.70;;
20830;SDS011;10576;53.556;9.868;2023-05-02T05:33:53;16.77;;;4.75;;
20830;SDS011;10576;53.556;9.868;2023-05-02T05:36:19;16.30;;;4.65;;
20830;SDS011;10576;53.556;9.868;2023-05-02T05:38:45;16.90;;;5.30;;
20830;SDS011;10576;53.556;9.868;2023-05-02T05:41:11;13.82;;;4.53;;
20830;SDS011;10576;53.556;9.868;2023-05-02T05:43:37;14.25;;;4.55;;
20830;SDS011;10576;53.556;9.868;2023-05-02T05:46:02;13.17;;;4.43;;
20830;SDS011;10576;53.556;9.868;2023-05-02T05:48:28;13.23;;;4.57;;
20830;SDS011;10576;53.556;9.868;2023-05-02T05:50:54;11.47;;;5.27;;
20830;SDS011;10576;53.556;9.868;2023-05-02T05:53:20;11.80;;;5.03;;
20830;SDS011;10576;53.556;9.868;2023-05-02T05:55:45;13.75;;;5.72;;
20830;SDS011;10576;53.556;9.868;2023-05-02T05:58:12;12.47;;;5.80;;
20830;SDS011;10576;53.556;9.868;2023-05-02T06:00:38;12.15;;;4.85;;
20830;SDS011;10576;53.556;9.868;2023-05-02T06:03:04;13.18;;;5.00;;
20830;SDS011;10576;53.556;9.868;2023-05-02T06:05:31;13.18;;;5.18;;
20830;SDS011;10576;53.556;9.868;2023-05-02T06:07:57;10.60;;;4.30;;
20830;SDS011;10576;53.556;9.868;2023-05-02T06:10:23;12.57;;;4.32;;
20830;SDS011;10576;53.556;9.868;2023-05-02T06:12:49;12.25;;;4.30;;
20830;SDS011;10576;53.556;9.868;2023-05-02T06:15:15;13.25;;;4.22;;
20830;SDS011;10576;53.556;9.868;2023-05-02T06:17:41;12.80;;;4.00;;
20830;SDS011;10576;53.556;9.868;2023-05-02T06:20:07;8.38;;;3.70;;
20830;SDS011;10576;53.556;9.868;2023-05-02T06:22:33;10.67;;;3.60;;
20830;SDS011;10576;53.556;9.868;2023-05-02T06:24:59;10.48;;;3.85;;
20830;SDS011;10576;53.556;9.868;2023-05-02T06:27:25;8.32;;;3.35;;
20830;SDS011;10576;53.556;9.868;2023-05-02T06:29:51;11.05;;;3.70;;
20830;SDS011;10576;53.556;9.868;2023-05-02T06:32:17;12.52;;;3.83;;
20830;SDS011;10576;53.556;9.868;2023-05-02T06:34:43;8.10;;;3.13;;
20830;SDS011;10576;53.556;9.868;2023-05-02T06:37:09;8.40;;;3.40;;
20830;SDS011;10576;53.556;9.868;2023-05-02T06:39:35;11.53;;;3.37;;
20830;SDS011;10576;53.556;9.868;2023-05-02T06:42:01;8.13;;;3.25;;
20830;SDS011;10576;53.556;9.868;2023-05-02T06:44:27;9.13;;;3.20;;
20830;SDS011;10576;53.556;9.868;2023-05-02T06:46:53;7.88;;;3.40;;
20830;SDS011;10576;53.556;9.868;2023-05-02T06:49:20;7.38;;;2.63;;
20830;SDS011;10576;53.556;9.868;2023-05-02T06:51:46;8.10;;;3.17;;
20830;SDS011;10576;53.556;9.868;2023-05-02T06:54:11;7.07;;;2.80;;
20830;SDS011;10576;53.556;9.868;2023-05-02T06:56:38;7.40;;;3.00;;
20830;SDS011;10576;53.556;9.868;2023-05-02T06:59:04;7.27;;;2.90;;
20830;SDS011;10576;53.556;9.868;2023-05-02T07:01:30;8.93;;;3.10;;
20830;SDS011;10576;53.556;9.868;2023-05-02T07:03:56;8.68;;;3.00;;
20830;SDS011;10576;53.556;9.868;2023-05-02T07:06:22;8.57;;;2.83;;
20830;SDS011;10576;53.556;9.868;2023-05-02T07:08:48;7.93;;;2.60;;
20830;SDS011;10576;53.556;9.868;2023-05-02T07:11:13;6.80;;;2.70;;
20830;SDS011;10576;53.556;9.868;2023-05-02T07:13:39;5.55;;;2.40;;
20830;SDS011;10576;53.556;9.868;2023-05-02T07:16:05;5.13;;;2.55;;
20830;SDS011;10576;53.556;9.868;2023-05-02T07:18:31;6.85;;;2.47;;
20830;SDS011;10576;53.556;9.868;2023-05-02T07:20:57;5.18;;;2.40;;
20830;SDS011;10576;53.556;9.868;2023-05-02T07:23:23;7.43;;;2.70;;
20830;SDS011;10576;53.556;9.868;2023-05-02T07:25:49;6.07;;;2.45;;
20830;SDS011;10576;53.556;9.868;2023-05-02T07:28:15;5.82;;;2.33;;
20830;SDS011;10576;53.556;9.868;2023-05-02T07:30:40;8.13;;;2.80;;
20830;SDS011;10576;53.556;9.868;2023-05-02T07:33:06;6.35;;;2.70;;
20830;SDS011;10576;53.556;9.868;2023-05-02T07:35:32;5.83;;;2.80;;
20830;SDS011;10576;53.556;9.868;2023-05-02T07:37:57;4.70;;;2.63;;
20830;SDS011;10576;53.556;9.868;2023-05-02T07:40:23;5.63;;;2.50;;
20830;SDS011;10576;53.556;9.868;2023-05-02T07:42:49;11.10;;;3.30;;
20830;SDS011;10576;53.556;9.868;2023-05-02T07:45:15;4.80;;;2.90;;
20830;SDS011;10576;53.556;9.868;2023-05-02T07:47:41;8.27;;;3.25;;
20830;SDS011;10576;53.556;9.868;2023-05-02T07:50:07;7.22;;;2.90;;
20830;SDS011;10576;53.556;9.868;2023-05-02T07:52:33;6.90;;;3.13;;
20830;SDS011;10576;53.556;9.868;2023-05-02T07:54:59;7.32;;;3.00;;
20830;SDS011;10576;53.556;9.868;2023-05-02T07:57:25;6.78;;;3.17;;
20830;SDS011;10576;53.556;9.868;2023-05-02T07:59:51;5.87;;;3.33;;
20830;SDS011;10576;53.556;9.868;2023-05-02T08:02:21;8.23;;;3.30;;
20830;SDS011;10576;53.556;9.868;2023-05-02T08:04:47;6.75;;;2.95;;
20830;SDS011;10576;53.556;9.868;2023-05-02T08:07:13;6.18;;;2.90;;
20830;SDS011;10576;53.556;9.868;2023-05-02T08:09:39;8.25;;;2.80;;
20830;SDS011;10576;53.556;9.868;2023-05-02T08:12:05;8.30;;;3.20;;
20830;SDS011;10576;53.556;9.868;2023-05-02T08:14:31;5.73;;;2.90;;
20830;SDS011;10576;53.556;9.868;2023-05-02T08:16:57;8.55;;;3.42;;
20830;SDS011;10576;53.556;9.868;2023-05-02T08:19:23;5.47;;;3.03;;
20830;SDS011;10576;53.556;9.868;2023-05-02T08:21:49;8.73;;;3.17;;
20830;SDS011;10576;53.556;9.868;2023-05-02T08:24:15;7.83;;;2.80;;
20830;SDS011;10576;53.556;9.868;2023-05-02T08:26:41;5.73;;;2.50;;
20830;SDS011;10576;53.556;9.868;2023-05-02T08:29:07;6.07;;;2.67;;
20830;SDS011;10576;53.556;9.868;2023-05-02T08:31:35;6.07;;;2.60;;
20830;SDS011;10576;53.556;9.868;2023-05-02T08:34:01;6.13;;;2.60;;
20830;SDS011;10576;53.556;9.868;2023-05-02T08:36:27;7.65;;;2.50;;
20830;SDS011;10576;53.556;9.868;2023-05-02T08:38:53;6.05;;;2.65;;
20830;SDS011;10576;53.556;9.868;2023-05-02T08:41:18;6.37;;;2.30;;
20830;SDS011;10576;53.556;9.868;2023-05-02T08:43:45;5.38;;;2.47;;
20830;SDS011;10576;53.556;9.868;2023-05-02T08:46:11;4.40;;;2.10;;
20830;SDS011;10576;53.556;9.868;2023-05-02T08:48:39;3.30;;;2.15;;
20830;SDS011;10576;53.556;9.868;2023-05-02T08:51:13;3.33;;;1.73;;
20830;SDS011;10576;53.556;9.868;2023-05-02T08:53:40;4.53;;;1.90;;
20830;SDS011;10576;53.556;9.868;2023-05-02T08:56:06;4.07;;;1.92;;
20830;SDS011;10576;53.556;9.868;2023-05-02T08:58:33;4.13;;;1.90;;
20830;SDS011;10576;53.556;9.868;2023-05-02T09:01:06;4.32;;;1.73;;
20830;SDS011;10576;53.556;9.868;2023-05-02T09:03:43;4.40;;;1.80;;
20830;SDS011;10576;53.556;9.868;2023-05-02T09:06:12;2.97;;;1.58;;
20830;SDS011;10576;53.556;9.868;2023-05-02T09:08:40;3.88;;;1.77;;
20830;SDS011;10576;53.556;9.868;2023-05-02T09:11:07;4.78;;;2.08;;
20830;SDS011;10576;53.556;9.868;2023-05-02T09:18:45;4.30;;;1.73;;
20830;SDS011;10576;53.556;9.868;2023-05-02T09:21:19;3.13;;;1.88;;
20830;SDS011;10576;53.556;9.868;2023-05-02T09:23:56;4.93;;;1.88;;
20830;SDS011;10576;53.556;9.868;2023-05-02T09:26:27;4.50;;;2.03;;
20830;SDS011;10576;53.556;9.868;2023-05-02T09:28:56;3.90;;;1.70;;
20830;SDS011;10576;53.556;9.868;2023-05-02T09:33:52;3.95;;;1.55;;
20830;SDS011;10576;53.556;9.868;2023-05-02T09:36:19;3.90;;;1.80;;
20830;SDS011;10576;53.556;9.868;2023-05-02T09:38:46;4.17;;;1.50;;
20830;SDS011;10576;53.556;9.868;2023-05-02T09:41:13;4.00;;;1.83;;
20830;SDS011;10576;53.556;9.868;2023-05-02T09:43:39;3.15;;;2.00;;
20830;SDS011;10576;53.556;9.868;2023-05-02T09:46:09;5.72;;;1.75;;
20830;SDS011;10576;53.556;9.868;2023-05-02T09:48:54;4.20;;;1.90;;
20830;SDS011;10576;53.556;9.868;2023-05-02T09:51:22;3.20;;;1.80;;
20830;SDS011;10576;53.556;9.868;2023-05-02T09:53:49;4.32;;;1.75;;
20830;SDS011;10576;53.556;9.868;2023-05-02T09:56:15;3.78;;;1.60;;
20830;SDS011;10576;53.556;9.868;2023-05-02T09:58:42;5.07;;;1.70;;
20830;SDS011;10576;53.556;9.868;2023-05-02T10:01:13;6.75;;;2.20;;
20830;SDS011;10576;53.556;9.868;2023-05-02T10:03:40;5.28;;;1.80;;
20830;SDS011;10576;53.556;9.868;2023-05-02T10:06:07;3.33;;;1.60;;
20830;SDS011;10576;53.556;9.868;2023-05-02T10:08:34;5.03;;;2.00;;
20830;SDS011;10576;53.556;9.868;2023-05-02T10:11:01;3.45;;;1.83;;
20830;SDS011;10576;53.556;9.868;2023-05-02T10:13:31;4.22;;;1.70;;
20830;SDS011;10576;53.556;9.868;2023-05-02T10:20:58;3.13;;;1.45;;
20830;SDS011;10576;53.556;9.868;2023-05-02T10:23:28;4.38;;;1.67;;
20830;SDS011;10576;53.556;9.868;2023-05-02T10:25:54;3.92;;;1.70;;
20830;SDS011;10576;53.556;9.868;2023-05-02T10:28:24;3.65;;;1.50;;
20830;SDS011;10576;53.556;9.868;2023-05-02T10:30:50;3.90;;;1.77;;
20830;SDS011;10576;53.556;9.868;2023-05-02T10:33:17;3.80;;;1.80;;
20830;SDS011;10576;53.556;9.868;2023-05-02T10:35:45;4.03;;;2.00;;
20830;SDS011;10576;53.556;9.868;2023-05-02T10:38:12;5.05;;;2.03;;
20830;SDS011;10576;53.556;9.868;2023-05-02T10:40:40;5.25;;;2.03;;
20830;SDS011;10576;53.556;9.868;2023-05-02T10:43:07;5.65;;;2.00;;
20830;SDS011;10576;53.556;9.868;2023-05-02T10:45:37;4.22;;;1.60;;
20830;SDS011;10576;53.556;9.868;2023-05-02T10:48:16;5.53;;;1.80;;
20830;SDS011;10576;53.556;9.868;2023-05-02T10:53:22;2.97;;;1.70;;
20830;SDS011;10576;53.556;9.868;2023-05-02T10:58:35;4.47;;;1.60;;
20830;SDS011;10576;53.556;9.868;2023-05-02T11:04:04;4.78;;;1.88;;
20830;SDS011;10576;53.556;9.868;2023-05-02T11:06:34;5.93;;;1.73;;
20830;SDS011;10576;53.556;9.868;2023-05-02T11:11:45;3.55;;;1.80;;
20830;SDS011;10576;53.556;9.868;2023-05-02T11:14:41;3.38;;;1.55;;
20830;SDS011;10576;53.556;9.868;2023-05-02T11:17:04;3.45;;;1.70;;
20830;SDS011;10576;53.556;9.868;2023-05-02T11:24:52;5.70;;;1.80;;
20830;SDS011;10576;53.556;9.868;2023-05-02T11:37:56;5.10;;;1.85;;
20830;SDS011;10576;53.556;9.868;2023-05-02T11:40:27;3.50;;;1.65;;
20830;SDS011;10576;53.556;9.868;2023-05-02T11:42:53;3.15;;;1.48;;
20830;SDS011;10576;53.556;9.868;2023-05-02T11:45:20;3.40;;;1.60;;
20830;SDS011;10576;53.556;9.868;2023-05-02T11:47:47;5.07;;;2.08;;
20830;SDS011;10576;53.556;9.868;2023-05-02T11:50:14;3.72;;;1.38;;
20830;SDS011;10576;53.556;9.868;2023-05-02T11:52:41;2.43;;;1.50;;
20830;SDS011;10576;53.556;9.868;2023-05-02T11:55:12;3.58;;;1.40;;
20830;SDS011;10576;53.556;9.868;2023-05-02T11:57:40;4.13;;;1.50;;
20830;SDS011;10576;53.556;9.868;2023-05-02T12:00:06;3.20;;;1.60;;
20830;SDS011;10576;53.556;9.868;2023-05-02T12:02:35;4.03;;;1.70;;
20830;SDS011;10576;53.556;9.868;2023-05-02T12:05:05;4.30;;;1.90;;
20830;SDS011;10576;53.556;9.868;2023-05-02T12:07:38;5.53;;;2.00;;
20830;SDS011;10576;53.556;9.868;2023-05-02T12:10:14;3.92;;;1.70;;
20830;SDS011;10576;53.556;9.868;2023-05-02T12:12:42;6.43;;;1.70;;
20830;SDS011;10576;53.556;9.868;2023-05-02T12:15:08;3.50;;;1.60;;
20830;SDS011;10576;53.556;9.868;2023-05-02T12:17:42;5.50;;;1.90;;
20830;SDS011;10576;53.556;9.868;2023-05-02T12:20:09;4.53;;;1.98;;
20830;SDS011;10576;53.556;9.868;2023-05-02T12:22:36;4.30;;;1.85;;
20830;SDS011;10576;53.556;9.868;2023-05-02T12:25:03;4.40;;;1.50;;
20830;SDS011;10576;53.556;9.868;2023-05-02T12:27:30;3.60;;;1.55;;
20830;SDS011;10576;53.556;9.868;2023-05-02T12:29:59;3.63;;;1.70;;
20830;SDS011;10576;53.556;9.868;2023-05-02T12:32:30;3.25;;;1.55;;
20830;SDS011;10576;53.556;9.868;2023-05-02T12:34:58;2.40;;;1.33;;
20830;SDS011;10576;53.556;9.868;2023-05-02T12:37:25;3.45;;;1.60;;
20830;SDS011;10576;53.556;9.868;2023-05-02T12:39:52;4.25;;;1.50;;
20830;SDS011;10576;53.556;9.868;2023-05-02T12:42:20;1.98;;;1.50;;
20830;SDS011;10576;53.556;9.868;2023-05-02T12:44:47;2.85;;;1.60;;
20830;SDS011;10576;53.556;9.868;2023-05-02T12:47:16;2.58;;;1.40;;
20830;SDS011;10576;53.556;9.868;2023-05-02T12:52:18;2.78;;;1.42;;
20830;SDS011;10576;53.556;9.868;2023-05-02T12:54:44;4.78;;;1.50;;
20830;SDS011;10576;53.556;9.868;2023-05-02T12:57:20;4.35;;;1.65;;
20830;SDS011;10576;53.556;9.868;2023-05-02T12:59:52;3.38;;;1.50;;
20830;SDS011;10576;53.556;9.868;2023-05-02T13:02:19;3.90;;;1.52;;
20830;SDS011;10576;53.556;9.868;2023-05-02T13:04:45;4.18;;;1.88;;
20830;SDS011;10576;53.556;9.868;2023-05-02T13:07:11;4.03;;;1.53;;
20830;SDS011;10576;53.556;9.868;2023-05-02T13:09:37;6.40;;;1.70;;
20830;SDS011;10576;53.556;9.868;2023-05-02T13:12:02;3.80;;;1.55;;
20830;SDS011;10576;53.556;9.868;2023-05-02T13:14:28;3.63;;;1.80;;
20830;SDS011;10576;53.556;9.868;2023-05-02T13:16:54;2.92;;;1.73;;
20830;SDS011;10576;53.556;9.868;2023-05-02T13:19:20;4.83;;;1.90;;
20830;SDS011;10576;53.556;9.868;2023-05-02T13:21:46;4.85;;;1.88;;
20830;SDS011;10576;53.556;9.868;2023-05-02T13:24:14;4.20;;;1.88;;
20830;SDS011;10576;53.556;9.868;2023-05-02T13:26:41;4.30;;;1.80;;
20830;SDS011;10576;53.556;9.868;2023-05-02T13:29:07;6.20;;;1.70;;
20830;SDS011;10576;53.556;9.868;2023-05-02T13:31:36;3.50;;;1.50;;
20830;SDS011;10576;53.556;9.868;2023-05-02T13:34:03;4.15;;;1.70;;
20830;SDS011;10576;53.556;9.868;2023-05-02T13:36:29;3.88;;;1.83;;
20830;SDS011;10576;53.556;9.868;2023-05-02T13:38:54;3.42;;;2.05;;
20830;SDS011;10576;53.556;9.868;2023-05-02T13:41:20;3.53;;;1.70;;
20830;SDS011;10576;53.556;9.868;2023-05-02T13:43:54;3.80;;;1.80;;
20830;SDS011;10576;53.556;9.868;2023-05-02T13:46:20;5.88;;;1.65;;
20830;SDS011;10576;53.556;9.868;2023-05-02T13:48:46;5.78;;;1.73;;
20830;SDS011;10576;53.556;9.868;2023-05-02T13:51:12;4.25;;;1.60;;
20830;SDS011;10576;53.556;9.868;2023-05-02T13:53:37;2.78;;;1.70;;
20830;SDS011;10576;53.556;9.868;2023-05-02T13:56:03;4.05;;;1.70;;
20830;SDS011;10576;53.556;9.868;2023-05-02T13:58:28;2.72;;;1.50;;
20830;SDS011;10576;53.556;9.868;2023-05-02T14:00:54;4.60;;;1.70;;
20830;SDS011;10576;53.556;9.868;2023-05-02T14:03:20;4.55;;;1.60;;
20830;SDS011;10576;53.556;9.868;2023-05-02T14:05:46;2.33;;;1.40;;
20830;SDS011;10576;53.556;9.868;2023-05-02T14:08:12;3.03;;;1.50;;
20830;SDS011;10576;53.556;9.868;2023-05-02T14:10:42;3.77;;;1.70;;
20830;SDS011;10576;53.556;9.868;2023-05-02T14:13:08;3.22;;;1.63;;
20830;SDS011;10576;53.556;9.868;2023-05-02T14:15:33;4.47;;;1.75;;
20830;SDS011;10576;53.556;9.868;2023-05-02T14:17:59;5.25;;;1.60;;
20830;SDS011;10576;53.556;9.868;2023-05-02T14:20:24;2.72;;;1.50;;
20830;SDS011;10576;53.556;9.868;2023-05-02T14:22:50;5.40;;;1.90;;
20830;SDS011;10576;53.556;9.868;2023-05-02T14:25:16;5.17;;;1.90;;
20830;SDS011;10576;53.556;9.868;2023-05-02T14:27:44;4.10;;;1.80;;
20830;SDS011;10576;53.556;9.868;2023-05-02T14:30:10;5.78;;;1.95;;
20830;SDS011;10576;53.556;9.868;2023-05-02T14:32:36;5.30;;;1.90;;
20830;SDS011;10576;53.556;9.868;2023-05-02T14:35:02;6.40;;;2.10;;
20830;SDS011;10576;53.556;9.868;2023-05-02T14:37:28;3.75;;;1.90;;
20830;SDS011;10576;53.556;9.868;2023-05-02T14:39:53;4.20;;;1.80;;
20830;SDS011;10576;53.556;9.868;2023-05-02T14:42:23;4.72;;;1.70;;
20830;SDS011;10576;53.556;9.868;2023-05-02T14:44:49;3.97;;;1.50;;
20830;SDS011;10576;53.556;9.868;2023-05-02T14:47:16;2.35;;;1.50;;
20830;SDS011;10576;53.556;9.868;2023-05-02T14:49:41;2.57;;;1.30;;
20830;SDS011;10576;53.556;9.868;2023-05-02T14:52:07;3.60;;;1.60;;
20830;SDS011;10576;53.556;9.868;2023-05-02T14:54:33;2.10;;;1.45;;
20830;SDS011;10576;53.556;9.868;2023-05-02T14:57:00;2.27;;;1.40;;
20830;SDS011;10576;53.556;9.868;2023-05-02T14:59:27;7.15;;;1.58;;
20830;SDS011;10576;53.556;9.868;2023-05-02T15:01:53;2.70;;;1.38;;
20830;SDS011;10576;53.556;9.868;2023-05-02T15:04:19;4.10;;;1.60;;
20830;SDS011;10576;53.556;9.868;2023-05-02T15:06:45;2.87;;;1.57;;
20830;SDS011;10576;53.556;9.868;2023-05-02T15:09:12;4.55;;;1.52;;
20830;SDS011;10576;53.556;9.868;2023-05-02T15:11:38;4.50;;;1.70;;
20830;SDS011;10576;53.556;9.868;2023-05-02T15:14:04;4.28;;;1.60;;
20830;SDS011;10576;53.556;9.868;2023-05-02T15:16:29;3.05;;;1.70;;
20830;SDS011;10576;53.556;9.868;2023-05-02T15:18:55;4.68;;;1.70;;
20830;SDS011;10576;53.556;9.868;2023-05-02T15:21:21;4.00;;;1.80;;
20830;SDS011;10576;53.556;9.868;2023-05-02T15:23:46;4.57;;;1.70;;
20830;SDS011;10576;53.556;9.868;2023-05-02T15:26:12;2.77;;;1.50;;
20830;SDS011;10576;53.556;9.868;2023-05-02T15:28:38;4.90;;;1.92;;
20830;SDS011;10576;53.556;9.868;2023-05-02T15:31:04;3.60;;;1.67;;
20830;SDS011;10576;53.556;9.868;2023-05-02T15:33:30;3.63;;;1.70;;
20830;SDS011;10576;53.556;9.868;2023-05-02T15:35:56;4.35;;;1.60;;